Time;durP1;ratioP1;P1;durP2;ratioP2;P2;SDS_P1;SDS_P2;PMS_P1;PMS_P2;Temp;Humidity;BMP_temperature;BMP_pressure;BME280_temperature;BME280_humidity;BME280_pressure;Samples;Min_cycle;Max_cycle;Signal;HPM_P1;HPM_P2
2022/08/15 07:01:25;;;;;;;;;;;;;;;26.63;100.00;99597.97;2911229;19;3119881;-52
2022/08/15 07:03:08;;;;;;;;;;;;;;;26.67;100.00;99605.53;3072283;19;1705;-51
2022/08/15 07:04:42;;;;;;;;;;;;;;;26.78;100.00;99628.63;3071372;19;935;-50
2022/08/15 07:05:54;;;;;;;;;;;;;;;27.00;100.00;99642.84;3070154;19;1337;-54
2022/08/15 07:07:32;;;;;;;;;;;;;;;27.19;100.00;99661.00;3069214;19;1685;-53
2022/08/15 07:08:43;;;;;;;;;;;;;;;27.47;100.00;99683.34;3071688;19;1437;-54
2022/08/15 07:09:46;;;;;;;;;;;;;;;27.59;100.00;99709.00;3071058;19;1142;-50
2022/08/15 07:10:56;;;;;;;;;;;;;;;27.76;100.00;99701.06;3071433;19;884;-49
2022/08/15 07:12:23;;;;;;;;;;;;;;;27.93;100.00;99725.97;3071179;19;832;-52
2022/08/15 07:14:12;;;;;;;;;;;;;;;28.17;100.00;99727.00;3071067;19;1317;-50
2022/08/15 07:15:26;;;;;;;;;;;;;;;28.44;100.00;99750.41;3070263;19;1100;-52
2022/08/15 07:16:36;;;;;;;;;;;;;;;28.64;100.00;99750.16;3070000;19;1243;-52
2022/08/15 07:17:45;;;;;;;;;;;;;;;28.86;100.00;99759.63;3071393;19;1187;-51
2022/08/15 07:18:57;;;;;;;;;;;;;;;29.05;100.00;99767.84;3070827;19;894;-52
2022/08/15 07:20:19;;;;;;;;;;;;;;;29.18;100.00;99778.66;3070810;19;999;-51
2022/08/15 07:21:43;;;;;;;;;;;;;;;29.30;100.00;99782.28;3071310;19;858;-50
2022/08/15 07:22:55;;;;;;;;;;;;;;;29.38;100.00;99788.31;3071213;19;1006;-50
2022/08/15 07:24:13;;;;;;;;;;;;;;;29.32;100.00;99802.97;3071384;19;885;-51
2022/08/15 07:25:37;;;;;;;;;;;;;;;29.33;100.00;99801.91;3071635;19;955;-52
2022/08/15 07:26:49;;;;;;;;;;;;;;;29.38;100.00;99802.06;3070968;19;983;-49
2022/08/15 07:28:01;;;;;;;;;;;;;;;29.43;100.00;99795.88;3071162;19;967;-53
2022/08/15 07:29:07;;;;;;;;;;;;;;;29.49;100.00;99797.66;3070686;19;980;-49
2022/08/15 07:30:21;;;;;;;;;;;;;;;29.55;100.00;99802.25;3071146;19;1039;-49
2022/08/15 07:31:33;;;;;;;;;;;;;;;29.56;100.00;99795.69;3071051;19;1222;-52
2022/08/15 07:32:58;;;;;;;;;;;;;;;29.58;100.00;99796.28;3070772;19;1153;-50
2022/08/15 07:34:05;;;;;;;;;;;;;;;29.61;100.00;99801.28;3071167;19;1191;-53
2022/08/15 07:35:32;;;;;;;;;;;;;;;29.61;100.00;99798.53;3071032;19;954;-49
2022/08/15 07:36:35;;;;;;;;;;;;;;;29.57;100.00;99794.59;3070958;19;1071;-49
2022/08/15 07:37:50;;;;;;;;;;;;;;;29.51;100.00;99792.78;3071061;19;1076;-53
2022/08/15 07:38:54;;;;;;;;;;;;;;;29.48;100.00;99789.66;3071749;19;1868;-50
2022/08/15 07:40:03;;;;;;;;;;;;;;;29.45;100.00;99792.91;3070965;19;968;-50
2022/08/15 07:41:12;;;;;;;;;;;;;;;29.46;100.00;99795.41;3070345;19;1866;-50
2022/08/15 07:42:19;;;;;;;;;;;;;;;29.41;100.00;99789.75;3071393;19;916;-52
2022/08/15 07:43:48;;;;;;;;;;;;;;;29.31;100.00;99789.47;3070711;19;1836;-54
2022/08/15 07:44:57;;;;;;;;;;;;;;;29.31;100.00;99795.81;3071140;19;959;-53
2022/08/15 07:46:25;;;;;;;;;;;;;;;29.37;100.00;99794.88;3070833;19;1367;-51
2022/08/15 07:47:31;;;;;;;;;;;;;;;29.34;100.00;99794.50;3070782;19;1003;-55
2022/08/15 07:48:39;;;;;;;;;;;;;;;29.37;100.00;99794.00;3071030;19;855;-51
2022/08/15 07:50:02;;;;;;;;;;;;;;;29.36;100.00;99793.16;3071962;19;1659;-51
2022/08/15 07:51:23;;;;;;;;;;;;;;;29.42;100.00;99791.44;3071074;19;976;-50
2022/08/15 07:52:34;;;;;;;;;;;;;;;29.47;100.00;99804.47;3070754;19;1063;-52
2022/08/15 07:53:48;;;;;;;;;;;;;;;29.56;100.00;99792.09;3070815;19;1412;-49
2022/08/15 07:54:59;;;;;;;;;;;;;;;29.62;100.00;99786.47;3070916;19;884;-49
2022/08/15 07:56:05;;;;;;;;;;;;;;;29.69;100.00;99792.72;3070556;19;815;-52
2022/08/15 07:57:30;;;;;;;;;;;;;;;29.74;100.00;99801.09;3070968;19;963;-52
2022/08/15 07:58:54;;;;;;;;;;;;;;;29.68;100.00;99807.53;3070854;19;2123;-50
2022/08/15 08:00:13;;;;;;;;;;;;;;;29.52;100.00;99799.97;3070670;19;1303;-53
2022/08/15 08:01:38;;;;;;;;;;;;;;;29.61;100.00;99804.03;3069842;19;2212;-51
2022/08/15 08:02:59;;;;;;;;;;;;;;;29.52;100.00;99802.72;3070555;19;1830;-50
2022/08/15 08:04:09;;;;;;;;;;;;;;;29.56;100.00;99798.44;3069815;19;1027;-51
2022/08/15 08:05:33;;;;;;;;;;;;;;;29.71;100.00;99801.56;3070208;19;1304;-50
2022/08/15 08:06:56;;;;;;;;;;;;;;;29.84;100.00;99805.16;3070281;19;908;-50
2022/08/15 08:08:00;;;;;;;;;;;;;;;29.88;100.00;99811.88;3069303;19;1145;-52
2022/08/15 08:09:10;;;;;;;;;;;;;;;30.03;100.00;99801.28;3070115;19;2071;-50
2022/08/15 08:10:20;;;;;;;;;;;;;;;30.16;100.00;99808.50;3070478;19;1838;-51
2022/08/15 08:11:36;;;;;;;;;;;;;;;30.28;100.00;99807.41;3070771;19;1593;-50
2022/08/15 08:12:58;;;;;;;;;;;;;;;30.26;100.00;99820.56;3055971;19;1002;-51
2022/08/15 08:14:08;;;;;;;;;;;;;;;30.07;100.00;99813.47;3057618;19;1200;-50
2022/08/15 08:15:33;;;;;;;;;;;;;;;29.82;100.00;99812.84;3058018;19;1583;-50
2022/08/15 08:17:00;;;;;;;;;;;;;;;29.75;100.00;99807.44;3058515;19;961;-50
2022/08/15 08:18:05;;;;;;;;;;;;;;;29.69;100.00;99809.22;3058695;19;975;-54
2022/08/15 08:19:11;;;;;;;;;;;;;;;29.81;100.00;99808.41;3059901;19;1900;-50
2022/08/15 08:20:20;;;;;;;;;;;;;;;29.96;100.00;99797.81;3058601;19;992;-50
2022/08/15 08:21:28;;;;;;;;;;;;;;;30.04;100.00;99816.72;3059218;19;1907;-50
2022/08/15 08:22:51;;;;;;;;;;;;;;;30.15;100.00;99813.16;3058214;19;1041;-50
2022/08/15 08:23:54;;;;;;;;;;;;;;;30.33;100.00;99813.03;3059266;19;991;-50
2022/08/15 08:24:59;;;;;;;;;;;;;;;30.43;100.00;99827.03;3057892;19;1473;-50
2022/08/15 08:26:24;;;;;;;;;;;;;;;30.54;100.00;99827.31;3058363;19;1069;-50
2022/08/15 08:27:35;;;;;;;;;;;;;;;30.68;100.00;99828.72;3058910;19;1759;-50
2022/08/15 08:28:53;;;;;;;;;;;;;;;30.83;100.00;99836.47;3058392;19;893;-50
2022/08/15 08:29:58;;;;;;;;;;;;;;;30.94;100.00;99839.22;3058442;19;894;-50
2022/08/15 08:31:21;;;;;;;;;;;;;;;31.08;100.00;99835.09;3058033;19;1010;-51
2022/08/15 08:32:40;;;;;;;;;;;;;;;31.20;100.00;99837.84;3058524;19;1193;-51
2022/08/15 08:34:02;;;;;;;;;;;;;;;31.36;100.00;99841.75;3058483;19;952;-50
2022/08/15 08:35:17;;;;;;;;;;;;;;;31.51;100.00;99839.31;3058327;19;984;-51
2022/08/15 08:36:26;;;;;;;;;;;;;;;31.62;100.00;99841.19;3058731;19;1271;-51
2022/08/15 08:37:42;;;;;;;;;;;;;;;31.73;100.00;99837.53;3059423;19;1003;-52
2022/08/15 08:39:16;;;;;;;;;;;;;;;31.82;100.00;99843.50;3058378;19;975;-50
2022/08/15 08:41:59;;;;;;;;;;;;;;;32.02;100.00;99851.28;3058725;19;1850;-50
2022/08/15 08:43:06;;;;;;;;;;;;;;;32.14;100.00;99852.03;3059372;19;868;-50
2022/08/15 08:44:15;;;;;;;;;;;;;;;32.17;100.00;99854.28;3058990;19;956;-51
2022/08/15 08:45:30;;;;;;;;;;;;;;;32.22;100.00;99859.94;3059215;19;880;-50
2022/08/15 08:46:45;;;;;;;;;;;;;;;32.24;100.00;99855.03;3058920;19;1315;-50
2022/08/15 08:47:55;;;;;;;;;;;;;;;32.28;100.00;99855.31;3058968;19;947;-51
2022/08/15 08:49:06;;;;;;;;;;;;;;;32.29;100.00;99846.78;3058070;19;1012;-50
2022/08/15 08:50:11;;;;;;;;;;;;;;;32.30;100.00;99853.16;3058141;19;1039;-50
2022/08/15 08:51:36;;;;;;;;;;;;;;;32.31;100.00;99852.91;3059295;19;883;-51
2022/08/15 08:52:51;;;;;;;;;;;;;;;32.33;100.00;99856.25;3058940;19;995;-51
2022/08/15 08:54:07;;;;;;;;;;;;;;;32.40;100.00;99854.16;3057968;19;1019;-51
2022/08/15 08:55:33;;;;;;;;;;;;;;;32.48;100.00;99855.66;3058339;19;1043;-51
2022/08/15 08:56:50;;;;;;;;;;;;;;;32.55;100.00;99861.84;3058976;19;881;-50
2022/08/15 08:58:21;;;;;;;;;;;;;;;32.53;100.00;99862.09;3059023;19;900;-50
2022/08/15 08:59:54;;;;;;;;;;;;;;;32.37;99.48;99868.47;3058577;19;988;-50
2022/08/15 09:00:57;;;;;;;;;;;;;;;32.07;98.72;99854.13;3057277;19;1045;-50
2022/08/15 09:02:06;;;;;;;;;;;;;;;31.97;100.00;99863.09;3058193;19;1861;-50
2022/08/15 09:03:27;;;;;;;;;;;;;;;31.82;100.00;99869.16;3058414;19;857;-51
2022/08/15 09:04:44;;;;;;;;;;;;;;;31.74;100.00;99866.81;3058600;19;960;-50
2022/08/15 09:05:54;;;;;;;;;;;;;;;31.63;100.00;99870.44;3057886;19;1752;-50
2022/08/15 09:06:58;;;;;;;;;;;;;;;31.51;100.00;99866.91;3057664;19;1046;-50
2022/08/15 09:08:04;;;;;;;;;;;;;;;31.39;100.00;99866.09;3057910;19;960;-50
2022/08/15 09:09:15;;;;;;;;;;;;;;;31.25;100.00;99861.94;3057947;19;932;-50
2022/08/15 09:10:29;;;;;;;;;;;;;;;31.08;100.00;99862.66;3058371;19;900;-50
2022/08/15 09:11:44;;;;;;;;;;;;;;;30.98;100.00;99861.63;3057701;19;1000;-50
2022/08/15 09:14:11;;;;;;;;;;;;;;;30.72;100.00;99840.94;3057934;19;1278;-50
2022/08/15 09:15:35;;;;;;;;;;;;;;;30.67;100.00;99854.63;3057643;19;1093;-50
2022/08/15 09:16:51;;;;;;;;;;;;;;;30.59;100.00;99846.69;3057813;19;991;-51
2022/08/15 09:18:34;;;;;;;;;;;;;;;30.59;100.00;99849.44;3057761;19;1184;-50
2022/08/15 09:20:05;;;;;;;;;;;;;;;30.66;100.00;99847.41;3057721;19;876;-51
2022/08/15 09:21:21;;;;;;;;;;;;;;;30.72;100.00;99846.44;3058055;19;1006;-50
2022/08/15 09:22:23;;;;;;;;;;;;;;;30.75;100.00;99848.72;3058502;19;1866;-50
2022/08/15 09:23:33;;;;;;;;;;;;;;;30.84;100.00;99849.19;3057981;19;1660;-51
2022/08/15 09:24:37;;;;;;;;;;;;;;;30.98;100.00;99845.09;3057053;19;861;-51
2022/08/15 09:26:09;;;;;;;;;;;;;;;31.16;100.00;99853.19;3058371;19;960;-50
2022/08/15 09:27:23;;;;;;;;;;;;;;;31.23;100.00;99861.34;3058491;19;876;-50
2022/08/15 09:28:28;;;;;;;;;;;;;;;31.33;100.00;99862.38;3058805;19;982;-50
2022/08/15 09:29:42;;;;;;;;;;;;;;;31.37;100.00;99860.81;3057920;19;984;-50
2022/08/15 09:31:16;;;;;;;;;;;;;;;31.42;100.00;99869.19;3057408;19;1300;-50
2022/08/15 09:32:27;;;;;;;;;;;;;;;31.51;100.00;99866.91;3057663;19;970;-50
2022/08/15 09:33:54;;;;;;;;;;;;;;;31.55;100.00;99868.06;3057676;19;1035;-51
2022/08/15 09:35:12;;;;;;;;;;;;;;;31.62;100.00;99868.75;3058362;19;964;-52
2022/08/15 09:36:33;;;;;;;;;;;;;;;31.78;100.00;99856.94;3058164;19;956;-50
2022/08/15 09:37:51;;;;;;;;;;;;;;;31.95;100.00;99865.25;3057425;19;1070;-50
2022/08/15 09:39:08;;;;;;;;;;;;;;;32.02;100.00;99867.84;3057976;19;861;-50
2022/08/15 09:40:31;;;;;;;;;;;;;;;32.07;100.00;99881.75;3058082;19;952;-50
2022/08/15 09:42:09;;;;;;;;;;;;;;;32.08;100.00;99873.22;3058327;19;1779;-51
2022/08/15 09:43:30;;;;;;;;;;;;;;;32.09;100.00;99857.47;3057272;19;1212;-51
2022/08/15 09:44:47;;;;;;;;;;;;;;;32.09;100.00;99868.53;3057505;19;1761;-50
2022/08/15 09:46:10;;;;;;;;;;;;;;;32.15;100.00;99862.00;3057252;19;949;-51
2022/08/15 09:47:39;;;;;;;;;;;;;;;32.18;100.00;99856.00;3057953;19;1178;-50
2022/08/15 09:49:05;;;;;;;;;;;;;;;32.09;100.00;99852.81;3057277;19;1126;-50
2022/08/15 09:50:15;;;;;;;;;;;;;;;32.09;100.00;99849.22;3057671;19;1047;-51
2022/08/15 09:51:48;;;;;;;;;;;;;;;31.82;100.00;99841.56;3058302;19;964;-50
2022/08/15 09:53:10;;;;;;;;;;;;;;;31.63;100.00;99848.38;3057425;19;888;-50
2022/08/15 09:54:23;;;;;;;;;;;;;;;31.59;100.00;99846.34;3057423;19;861;-50
2022/08/15 09:55:34;;;;;;;;;;;;;;;31.55;100.00;99834.13;3057200;19;1658;-51
2022/08/15 09:56:40;;;;;;;;;;;;;;;31.49;100.00;99830.44;3057451;19;1309;-50
2022/08/15 09:57:52;;;;;;;;;;;;;;;31.19;100.00;99840.84;3057033;19;917;-51
2022/08/15 09:59:04;;;;;;;;;;;;;;;30.93;100.00;99829.25;3056861;19;1167;-50
2022/08/15 10:00:17;;;;;;;;;;;;;;;30.90;100.00;99834.44;3057554;19;924;-50
2022/08/15 10:01:23;;;;;;;;;;;;;;;30.78;100.00;99829.81;3056941;19;1176;-51
2022/08/15 10:02:31;;;;;;;;;;;;;;;30.61;100.00;99833.53;3057263;19;955;-50
2022/08/15 10:03:45;;;;;;;;;;;;;;;30.61;100.00;99819.75;3056452;19;1842;-50
2022/08/15 10:04:49;;;;;;;;;;;;;;;30.64;100.00;99811.84;3056879;19;1031;-50
2022/08/15 10:06:13;;;;;;;;;;;;;;;30.68;100.00;99806.66;3057310;19;987;-50
2022/08/15 10:07:51;;;;;;;;;;;;;;;30.71;100.00;99806.19;3057904;19;1043;-50
2022/08/15 10:08:54;;;;;;;;;;;;;;;30.91;100.00;99812.16;3057943;19;960;-50
2022/08/15 10:10:04;;;;;;;;;;;;;;;30.97;100.00;99816.69;3057706;19;1051;-50
2022/08/15 10:11:14;;;;;;;;;;;;;;;31.11;100.00;99814.53;3057493;19;933;-50
2022/08/15 10:12:17;;;;;;;;;;;;;;;31.26;100.00;99819.50;3057731;19;959;-50
2022/08/15 10:13:26;;;;;;;;;;;;;;;31.43;100.00;99823.97;3057721;19;1655;-50
2022/08/15 10:14:40;;;;;;;;;;;;;;;31.64;100.00;99819.69;3058051;19;892;-50
2022/08/15 10:15:48;;;;;;;;;;;;;;;31.90;100.00;99825.66;3057743;19;888;-50
2022/08/15 10:16:58;;;;;;;;;;;;;;;32.14;100.00;99821.66;3057989;19;801;-50
2022/08/15 10:18:08;;;;;;;;;;;;;;;32.13;100.00;99828.25;3057500;19;976;-50
2022/08/15 10:19:31;;;;;;;;;;;;;;;32.01;97.36;99822.00;3057993;19;884;-50
2022/08/15 10:20:40;;;;;;;;;;;;;;;31.91;98.20;99825.41;3057948;19;947;-50
2022/08/15 10:21:45;;;;;;;;;;;;;;;31.80;98.50;99816.13;3057354;19;1819;-50
2022/08/15 10:22:48;;;;;;;;;;;;;;;31.67;100.00;99819.22;3057725;19;1287;-50
2022/08/15 10:23:53;;;;;;;;;;;;;;;31.81;100.00;99826.09;3056850;19;1830;-50
2022/08/15 10:25:23;;;;;;;;;;;;;;;31.98;100.00;99817.00;3056773;19;1008;-50
2022/08/15 10:26:34;;;;;;;;;;;;;;;32.01;99.62;99819.22;3055587;19;1192;-50
2022/08/15 10:27:55;;;;;;;;;;;;;;;32.12;100.00;99819.16;3056670;19;971;-51
2022/08/15 10:29:11;;;;;;;;;;;;;;;32.04;99.12;99824.25;3057110;19;952;-52
2022/08/15 10:30:16;;;;;;;;;;;;;;;31.92;99.21;99818.81;3057505;19;1042;-50
2022/08/15 10:31:44;;;;;;;;;;;;;;;31.90;100.00;99821.00;3056585;19;961;-50
2022/08/15 10:33:01;;;;;;;;;;;;;;;31.89;100.00;99824.00;3056861;19;944;-50
2022/08/15 10:34:18;;;;;;;;;;;;;;;31.88;100.00;99819.59;3056665;19;932;-50
2022/08/15 10:35:45;;;;;;;;;;;;;;;31.87;100.00;99817.91;3056006;19;1039;-50
2022/08/15 10:37:05;;;;;;;;;;;;;;;32.04;100.00;99821.50;3056633;19;932;-50
2022/08/15 10:38:11;;;;;;;;;;;;;;;31.94;100.00;99811.13;3057265;19;924;-50
2022/08/15 10:39:32;;;;;;;;;;;;;;;31.99;100.00;99816.75;3056781;19;991;-50
2022/08/15 10:40:39;;;;;;;;;;;;;;;32.07;100.00;99815.47;3056897;19;905;-50
2022/08/15 10:42:03;;;;;;;;;;;;;;;32.09;100.00;99813.31;3057419;19;868;-50
2022/08/15 10:43:23;;;;;;;;;;;;;;;32.32;100.00;99818.69;3057204;19;1849;-50
2022/08/15 10:44:48;;;;;;;;;;;;;;;32.48;100.00;99831.63;3057200;19;1082;-50
2022/08/15 10:45:59;;;;;;;;;;;;;;;32.54;98.31;99825.09;3057485;19;999;-51
2022/08/15 10:47:27;;;;;;;;;;;;;;;32.50;99.22;99826.69;3056355;19;972;-50
2022/08/15 10:48:41;;;;;;;;;;;;;;;32.30;96.93;99823.63;3056515;19;952;-51
2022/08/15 10:50:12;;;;;;;;;;;;;;;32.43;98.76;99826.03;3057283;19;826;-50
2022/08/15 10:51:54;;;;;;;;;;;;;;;32.34;96.77;99827.56;3057190;19;1021;-50
2022/08/15 10:53:08;;;;;;;;;;;;;;;32.31;97.21;99828.06;3056701;19;1905;-50
2022/08/15 10:54:31;;;;;;;;;;;;;;;32.29;97.62;99818.34;3056552;19;1116;-50
2022/08/15 10:55:42;;;;;;;;;;;;;;;32.09;98.04;99818.84;3056464;19;965;-50
2022/08/15 10:57:03;;;;;;;;;;;;;;;31.97;98.90;99821.69;3057068;19;1097;-50
2022/08/15 10:58:15;;;;;;;;;;;;;;;31.91;99.32;99824.59;3057161;19;1087;-50
2022/08/15 10:59:25;;;;;;;;;;;;;;;32.03;100.00;99820.66;3057214;19;885;-50
2022/08/15 11:00:33;;;;;;;;;;;;;;;32.05;99.25;99821.25;3057226;19;948;-51
2022/08/15 11:01:53;;;;;;;;;;;;;;;32.05;98.85;99823.19;3057292;19;975;-50
2022/08/15 11:02:56;;;;;;;;;;;;;;;32.12;98.85;99832.16;3057126;19;952;-50
2022/08/15 11:04:19;;;;;;;;;;;;;;;31.94;97.53;99829.63;3056713;19;1854;-51
2022/08/15 11:05:43;;;;;;;;;;;;;;;31.99;100.00;99815.91;3056456;19;1052;-50
2022/08/15 11:06:46;;;;;;;;;;;;;;;32.11;100.00;99822.19;3056576;19;1059;-50
2022/08/15 11:07:59;;;;;;;;;;;;;;;31.96;99.76;99824.69;3057256;19;975;-50
2022/08/15 11:09:06;;;;;;;;;;;;;;;31.85;100.00;99816.25;3057333;19;964;-50
2022/08/15 11:10:11;;;;;;;;;;;;;;;31.83;100.00;99814.81;3056341;19;1110;-51
2022/08/15 11:11:26;;;;;;;;;;;;;;;31.77;100.00;99827.66;3056469;19;943;-50
2022/08/15 11:12:32;;;;;;;;;;;;;;;31.76;100.00;99819.66;3056459;19;889;-50
2022/08/15 11:13:35;;;;;;;;;;;;;;;31.71;100.00;99814.03;3056484;19;979;-50
2022/08/15 11:14:43;;;;;;;;;;;;;;;31.66;100.00;99820.28;3056363;19;998;-50
2022/08/15 11:15:47;;;;;;;;;;;;;;;31.62;100.00;99823.78;3056272;19;920;-51
2022/08/15 11:16:54;;;;;;;;;;;;;;;31.60;100.00;99824.03;3056013;19;1665;-50
2022/08/15 11:18:03;;;;;;;;;;;;;;;31.57;100.00;99813.47;3056307;19;935;-50
2022/08/15 11:19:33;;;;;;;;;;;;;;;31.58;100.00;99823.44;3056191;19;1031;-50
2022/08/15 11:21:03;;;;;;;;;;;;;;;31.55;100.00;99823.91;3057277;19;872;-50
2022/08/15 11:22:17;;;;;;;;;;;;;;;31.56;100.00;99820.09;3057161;19;901;-50
2022/08/15 11:23:31;;;;;;;;;;;;;;;31.59;100.00;99816.00;3056992;19;977;-51
2022/08/15 11:24:40;;;;;;;;;;;;;;;31.48;100.00;99820.50;3056269;19;1850;-50
2022/08/15 11:25:44;;;;;;;;;;;;;;;31.14;100.00;99812.13;3056904;19;953;-50
2022/08/15 11:26:48;;;;;;;;;;;;;;;30.82;100.00;99810.84;3055877;19;1687;-50
2022/08/15 11:27:59;;;;;;;;;;;;;;;31.02;100.00;99802.19;3056497;19;865;-50
2022/08/15 11:29:14;;;;;;;;;;;;;;;31.12;100.00;99803.25;3056876;19;875;-50
2022/08/15 11:30:23;;;;;;;;;;;;;;;31.23;100.00;99806.22;3056648;19;973;-50
2022/08/15 11:31:31;;;;;;;;;;;;;;;31.35;100.00;99790.44;3057266;19;877;-51
2022/08/15 11:32:40;;;;;;;;;;;;;;;31.48;100.00;99796.50;3056887;19;876;-50
2022/08/15 11:33:43;;;;;;;;;;;;;;;31.64;100.00;99797.63;3056813;19;1158;-50
2022/08/15 11:34:48;;;;;;;;;;;;;;;31.78;100.00;99801.75;3056618;19;1650;-51
2022/08/15 11:36:04;;;;;;;;;;;;;;;31.99;100.00;99799.34;3056899;19;880;-52
2022/08/15 11:37:17;;;;;;;;;;;;;;;32.24;100.00;99805.31;3055710;19;984;-50
2022/08/15 11:38:19;;;;;;;;;;;;;;;32.44;100.00;99805.59;3056036;19;1379;-50
2022/08/15 11:39:24;;;;;;;;;;;;;;;32.67;100.00;99814.75;3056738;19;947;-50
2022/08/15 11:40:37;;;;;;;;;;;;;;;32.80;100.00;99819.94;3056894;19;864;-50
2022/08/15 11:41:41;;;;;;;;;;;;;;;32.98;100.00;99816.03;3056898;19;940;-51
2022/08/15 11:42:57;;;;;;;;;;;;;;;33.16;100.00;99830.38;3056086;19;947;-50
2022/08/15 11:44:12;;;;;;;;;;;;;;;33.11;97.84;99826.69;3056063;19;1858;-50
2022/08/15 11:45:19;;;;;;;;;;;;;;;33.15;98.65;99823.16;3055382;19;1028;-51
2022/08/15 11:46:21;;;;;;;;;;;;;;;33.30;100.00;99819.78;3056111;19;739;-51
2022/08/15 11:47:35;;;;;;;;;;;;;;;33.44;99.80;99828.50;3056706;19;1043;-50
2022/08/15 11:48:39;;;;;;;;;;;;;;;33.38;96.53;99824.00;3058885;19;920;-50
2022/08/15 11:49:48;;;;;;;;;;;;;;;33.47;95.27;99822.44;3058849;19;935;-50
2022/08/15 11:50:58;;;;;;;;;;;;;;;33.54;95.33;99823.06;3059907;19;940;-50
2022/08/15 11:52:04;;;;;;;;;;;;;;;33.58;94.51;99832.50;3060102;19;932;-50
2022/08/15 11:53:33;;;;;;;;;;;;;;;33.54;94.47;99829.44;3059229;19;919;-50
2022/08/15 11:54:37;;;;;;;;;;;;;;;33.05;90.59;99830.50;3059194;19;1007;-50
2022/08/15 11:55:44;;;;;;;;;;;;;;;32.63;93.15;99821.88;3058605;19;866;-50
2022/08/15 11:56:50;;;;;;;;;;;;;;;32.76;93.54;99810.50;3059282;19;984;-50
2022/08/15 11:58:20;;;;;;;;;;;;;;;32.81;93.93;99822.47;3059413;19;1305;-50
2022/08/15 11:59:33;;;;;;;;;;;;;;;32.90;94.76;99820.91;3059570;19;943;-51
2022/08/15 12:00:49;;;;;;;;;;;;;;;32.91;95.13;99816.22;3058671;19;1384;-51
2022/08/15 12:02:00;;;;;;;;;;;;;;;32.74;94.05;99821.78;3059162;19;952;-50
2022/08/15 12:03:24;;;;;;;;;;;;;;;32.85;94.52;99811.72;3059732;19;1258;-50
2022/08/15 12:04:49;;;;;;;;;;;;;;;33.07;96.64;99815.34;3059121;19;1838;-50
2022/08/15 12:06:16;;;;;;;;;;;;;;;33.23;94.94;99803.38;3059385;19;1019;-50
2022/08/15 12:07:35;;;;;;;;;;;;;;;33.13;94.89;99830.88;3059832;19;998;-50
2022/08/15 12:08:40;;;;;;;;;;;;;;;33.16;94.37;99799.94;3058386;19;1243;-50
2022/08/15 12:09:57;;;;;;;;;;;;;;;33.03;94.68;99792.03;3058821;19;816;-50
2022/08/15 12:11:05;;;;;;;;;;;;;;;32.98;92.74;99805.78;3059181;19;919;-50
2022/08/15 12:12:28;;;;;;;;;;;;;;;33.05;93.21;99816.69;3059421;19;1805;-50
2022/08/15 12:13:53;;;;;;;;;;;;;;;33.12;93.21;99814.53;3059463;19;1405;-50
2022/08/15 12:15:04;;;;;;;;;;;;;;;32.96;93.49;99808.00;3059523;19;1014;-50
2022/08/15 12:16:11;;;;;;;;;;;;;;;33.03;94.61;99803.09;3058550;19;991;-50
2022/08/15 12:17:33;;;;;;;;;;;;;;;32.97;93.90;99812.41;3059066;19;1047;-50
2022/08/15 12:18:57;;;;;;;;;;;;;;;32.83;92.30;99814.75;3059143;19;1680;-50
2022/08/15 12:20:00;;;;;;;;;;;;;;;32.86;93.56;99807.84;3059883;19;878;-50
2022/08/15 12:21:24;;;;;;;;;;;;;;;32.77;94.51;99806.63;3059613;19;904;-50
2022/08/15 12:22:32;;;;;;;;;;;;;;;32.61;94.65;99796.44;3059372;19;872;-50
2022/08/15 12:23:58;;;;;;;;;;;;;;;32.68;95.11;99806.22;3059553;19;967;-50
2022/08/15 12:25:03;;;;;;;;;;;;;;;32.74;96.88;99794.16;3058705;19;1858;-50
2022/08/15 12:26:16;;;;;;;;;;;;;;;32.78;97.38;99795.31;3059556;19;967;-50
2022/08/15 12:27:40;;;;;;;;;;;;;;;32.61;93.31;99796.44;3059524;19;1340;-50
2022/08/15 12:28:48;;;;;;;;;;;;;;;32.81;95.40;99791.22;3059061;19;803;-50
2022/08/15 12:29:59;;;;;;;;;;;;;;;32.99;96.42;99790.03;3059462;19;983;-51
2022/08/15 12:31:04;;;;;;;;;;;;;;;33.10;92.94;99781.59;3059274;19;869;-50
2022/08/15 12:32:19;;;;;;;;;;;;;;;32.96;85.65;99796.94;3059454;19;896;-50
2022/08/15 12:33:41;;;;;;;;;;;;;;;32.95;81.49;99806.34;3059158;19;948;-50
2022/08/15 12:34:56;;;;;;;;;;;;;;;32.98;82.01;99800.25;3058124;19;971;-51
2022/08/15 12:36:02;;;;;;;;;;;;;;;32.78;84.54;99811.06;3058769;19;955;-50
2022/08/15 12:37:08;;;;;;;;;;;;;;;32.87;87.78;99804.00;3058872;19;1648;-50
2022/08/15 12:38:14;;;;;;;;;;;;;;;32.96;87.40;99794.19;3059357;19;1275;-51
2022/08/15 12:39:18;;;;;;;;;;;;;;;32.95;87.05;99789.75;3058867;19;1067;-50
2022/08/15 12:40:29;;;;;;;;;;;;;;;33.06;87.10;99790.69;3058998;19;1645;-51
2022/08/15 12:41:54;;;;;;;;;;;;;;;33.15;85.46;99792.75;3058241;19;904;-51
2022/08/15 12:43:19;;;;;;;;;;;;;;;33.38;85.75;99791.63;3058720;19;901;-50
2022/08/15 12:44:27;;;;;;;;;;;;;;;33.23;84.56;99792.31;3058518;19;892;-51
2022/08/15 12:45:32;;;;;;;;;;;;;;;33.09;83.12;99785.47;3057390;19;1853;-51
2022/08/15 12:46:36;;;;;;;;;;;;;;;32.89;82.65;99796.28;3059146;19;996;-50
2022/08/15 12:47:41;;;;;;;;;;;;;;;32.79;84.72;99785.09;3059049;19;881;-50
2022/08/15 12:49:05;;;;;;;;;;;;;;;33.03;83.92;99789.28;3059105;19;892;-50
2022/08/15 12:50:09;;;;;;;;;;;;;;;33.21;84.91;99783.41;3058808;19;1112;-50
2022/08/15 12:51:17;;;;;;;;;;;;;;;33.23;83.28;99775.72;3059071;19;936;-51
2022/08/15 12:52:24;;;;;;;;;;;;;;;33.34;82.58;99786.88;3058844;19;951;-51
2022/08/15 12:53:30;;;;;;;;;;;;;;;33.46;82.28;99776.50;3059118;19;888;-50
2022/08/15 12:54:32;;;;;;;;;;;;;;;33.51;81.86;99776.56;3059193;19;836;-51
2022/08/15 12:55:42;;;;;;;;;;;;;;;33.58;82.81;99785.47;3058884;19;924;-52
2022/08/15 12:56:47;;;;;;;;;;;;;;;33.62;82.90;99779.16;3059142;19;874;-51
2022/08/15 12:58:09;;;;;;;;;;;;;;;33.42;82.03;99770.66;3058750;19;977;-51
2022/08/15 12:59:13;;;;;;;;;;;;;;;33.43;83.91;99769.56;3059100;19;920;-50
2022/08/15 13:00:17;;;;;;;;;;;;;;;33.56;85.87;99768.31;3058654;19;1026;-51
2022/08/15 13:01:40;;;;;;;;;;;;;;;33.61;84.05;99765.56;3059025;19;1270;-50
2022/08/15 13:03:00;;;;;;;;;;;;;;;33.60;84.87;99766.66;3058101;19;956;-51
2022/08/15 13:04:06;;;;;;;;;;;;;;;33.60;84.69;99761.13;3058099;19;980;-50
2022/08/15 13:05:33;;;;;;;;;;;;;;;33.51;87.57;99758.03;3057801;19;1849;-51
2022/08/15 13:06:58;;;;;;;;;;;;;;;33.63;87.22;99764.22;3057418;19;1079;-51
2022/08/15 13:08:01;;;;;;;;;;;;;;;33.61;87.28;99749.81;3057795;19;924;-50
2022/08/15 13:09:27;;;;;;;;;;;;;;;33.71;87.36;99751.00;3058605;19;967;-51
2022/08/15 13:10:30;;;;;;;;;;;;;;;33.60;86.43;99753.66;3058592;19;1019;-50
2022/08/15 13:11:54;;;;;;;;;;;;;;;33.64;89.13;99754.00;3058063;19;1026;-51
2022/08/15 13:12:56;;;;;;;;;;;;;;;33.47;86.35;99743.03;3057754;19;948;-50
2022/08/15 13:14:03;;;;;;;;;;;;;;;33.26;85.30;99753.06;3059064;19;895;-51
2022/08/15 13:15:05;;;;;;;;;;;;;;;33.20;87.57;99759.63;3057794;19;1023;-51
2022/08/15 13:16:10;;;;;;;;;;;;;;;33.22;86.82;99740.81;3057740;19;1416;-50
2022/08/15 13:17:35;;;;;;;;;;;;;;;33.14;86.93;99754.28;3058649;19;1011;-50
2022/08/15 13:18:50;;;;;;;;;;;;;;;33.18;85.25;99761.81;3057781;19;947;-50
2022/08/15 13:23:58;;;;;;;;;;;;;;;33.10;84.72;99753.97;3058783;19;955;-51
2022/08/15 13:25:21;;;;;;;;;;;;;;;33.14;83.86;99746.00;3058484;19;864;-50
2022/08/15 13:26:26;;;;;;;;;;;;;;;33.29;84.37;99751.72;3057589;19;1869;-50
2022/08/15 13:27:35;;;;;;;;;;;;;;;33.50;87.66;99753.59;3057651;19;968;-51
2022/08/15 13:28:39;;;;;;;;;;;;;;;33.48;83.61;99749.41;3057630;19;803;-50
2022/08/15 13:29:47;;;;;;;;;;;;;;;33.44;83.38;99739.97;3057791;19;952;-50
2022/08/15 13:30:56;;;;;;;;;;;;;;;33.41;82.96;99743.25;3058716;19;905;-51
2022/08/15 13:32:09;;;;;;;;;;;;;;;33.38;83.02;99743.78;3058507;19;870;-50
2022/08/15 13:33:13;;;;;;;;;;;;;;;33.42;81.40;99750.47;3058531;19;896;-50
2022/08/15 13:34:19;;;;;;;;;;;;;;;33.46;81.50;99746.06;3058594;19;963;-51
2022/08/15 13:35:22;;;;;;;;;;;;;;;33.38;82.87;99738.25;3058078;19;1007;-51
2022/08/15 13:36:34;;;;;;;;;;;;;;;33.35;82.59;99738.75;3058312;19;964;-51
2022/08/15 13:37:42;;;;;;;;;;;;;;;33.40;83.17;99736.91;3058377;19;856;-50
2022/08/15 13:39:15;;;;;;;;;;;;;;;33.38;83.03;99738.25;3058508;19;925;-50